Time;durP1;ratioP1;P1;durP2;ratioP2;P2;SDS_P1;SDS_P2;PMS_P1;PMS_P2;Temp;Humidity;BMP_temperature;BMP_pressure;BME280_temperature;BME280_humidity;BME280_pressure;Samples;Min_cycle;Max_cycle;Signal;HPM_P1;HPM_P2
2023/10/25 00:01:41;;;;;;;3.93;3.50;;;;;;;11.18;95.57;99212.13;5056324;28;20206;-80
2023/10/25 00:04:07;;;;;;;5.20;4.40;;;;;;;11.24;95.48;99209.28;5036094;28;20208;-80
2023/10/25 00:06:34;;;;;;;4.00;3.70;;;;;;;11.15;96.13;99199.22;5036589;28;20263;-80
2023/10/25 00:09:00;;;;;;;4.43;4.13;;;;;;;11.20;96.20;99192.03;5035833;28;20218;-80
2023/10/25 00:11:27;;;;;;;4.27;3.97;;;;;;;11.19;95.72;99195.56;5036628;28;20231;-80
2023/10/25 00:13:54;;;;;;;3.80;3.50;;;;;;;11.21;95.70;99198.97;5035120;28;20201;-80
2023/10/25 00:16:21;;;;;;;4.97;3.30;;;;;;;11.30;95.53;99206.41;5036000;28;20213;-81
2023/10/25 00:18:47;;;;;;;3.53;3.23;;;;;;;11.30;95.38;99212.50;5035017;28;20229;-80
2023/10/25 00:21:14;;;;;;;4.17;3.63;;;;;;;11.28;95.40;99211.69;5036692;28;20209;-81
2023/10/25 00:23:40;;;;;;;3.30;3.03;;;;;;;11.26;95.51;99204.84;5039375;28;20669;-81
2023/10/25 00:26:07;;;;;;;3.57;3.10;;;;;;;11.31;95.06;99208.09;5039917;28;20206;-82
2023/10/25 00:28:33;;;;;;;4.73;3.30;;;;;;;11.26;94.90;99210.91;5020826;28;20720;-80
2023/10/25 00:31:01;;;;;;;4.00;3.60;;;;;;;11.25;95.12;99213.59;5033644;28;20225;-81
2023/10/25 00:33:28;;;;;;;3.17;2.87;;;;;;;11.27;94.81;99216.97;5040258;28;20217;-81
2023/10/25 00:35:54;;;;;;;3.33;3.03;;;;;;;11.20;95.18;99221.63;5043693;28;20293;-80
2023/10/25 00:38:21;;;;;;;3.17;2.97;;;;;;;11.14;94.99;99221.88;5042734;28;20238;-80
2023/10/25 00:40:47;;;;;;;3.00;2.80;;;;;;;11.20;95.45;99215.53;5031704;28;20198;-81
2023/10/25 00:43:15;;;;;;;3.30;3.10;;;;;;;11.26;95.08;99216.16;5043769;28;20655;-80
2023/10/25 00:45:54;;;;;;;3.20;3.00;;;;;;;11.28;95.18;99222.16;5039431;28;20218;-80
2023/10/25 00:48:22;;;;;;;3.13;2.83;;;;;;;11.30;94.27;99229.94;5039924;28;20235;-81
2023/10/25 00:50:48;;;;;;;3.53;2.60;;;;;;;11.31;94.23;99239.47;5031698;28;20223;-80
2023/10/25 00:53:15;;;;;;;3.53;3.20;;;;;;;11.22;94.07;99256.38;5039908;28;20203;-80
2023/10/25 00:55:41;;;;;;;3.10;2.80;;;;;;;11.24;94.43;99253.69;5039897;28;20206;-80
2023/10/25 00:58:08;;;;;;;3.33;3.03;;;;;;;11.29;93.97;99249.13;5024777;28;20234;-81
2023/10/25 01:00:35;;;;;;;3.17;2.87;;;;;;;11.34;93.70;99265.47;5030219;28;20206;-80
2023/10/25 01:03:07;;;;;;;3.33;3.07;;;;;;;11.22;94.14;99251.16;5039761;28;20723;-81
2023/10/25 01:05:35;;;;;;;3.17;2.87;;;;;;;11.26;93.94;99250.09;5040279;28;20214;-81
2023/10/25 01:08:01;;;;;;;3.83;2.77;;;;;;;11.31;94.01;99253.34;5039767;28;20233;-80
2023/10/25 01:10:28;;;;;;;3.13;2.83;;;;;;;11.31;94.53;99253.34;5040183;28;20225;-80
2023/10/25 01:12:55;;;;;;;3.10;2.80;;;;;;;11.29;94.66;99239.50;5039820;28;20211;-80
2023/10/25 01:15:21;;;;;;;3.30;3.10;;;;;;;11.31;94.74;99234.22;5040408;28;20695;-80
2023/10/25 01:17:48;;;;;;;3.10;2.90;;;;;;;11.35;94.14;99245.41;5042973;28;20226;-80
2023/10/25 01:20:14;;;;;;;3.40;3.10;;;;;;;11.27;94.46;99236.13;5044601;28;20635;-81
2023/10/25 01:22:42;;;;;;;3.63;3.03;;;;;;;11.32;94.12;99235.94;5039953;28;20453;-81
2023/10/25 01:25:09;;;;;;;3.30;3.00;;;;;;;11.31;94.02;99242.91;5039990;28;20213;-80
2023/10/25 01:27:35;;;;;;;2.93;2.73;;;;;;;11.36;94.26;99244.47;5027362;28;20229;-80
2023/10/25 01:30:02;;;;;;;4.20;3.00;;;;;;;11.41;93.45;99251.22;5022831;28;20198;-80
2023/10/25 01:32:28;;;;;;;2.53;2.33;;;;;;;11.47;93.42;99253.56;5047760;28;20258;-81
2023/10/25 01:34:54;;;;;;;2.87;2.60;;;;;;;11.46;93.69;99258.88;5037030;28;20202;-80
2023/10/25 01:37:21;;;;;;;4.47;2.83;;;;;;;11.42;93.25;99262.53;5037315;28;20217;-80
2023/10/25 01:39:49;;;;;;;2.63;2.40;;;;;;;11.39;93.61;99260.88;5036972;28;20205;-81
2023/10/25 01:42:15;;;;;;;2.43;2.23;;;;;;;11.42;93.28;99262.53;5037213;28;20206;-81
2023/10/25 01:44:41;;;;;;;3.27;2.83;;;;;;;11.40;93.60;99259.97;5037082;28;20213;-80
2023/10/25 01:47:08;;;;;;;2.43;2.30;;;;;;;11.38;93.64;99264.44;5036971;28;20206;-79
2023/10/25 01:49:34;;;;;;;2.50;2.30;;;;;;;11.37;93.96;99252.25;5036866;28;20213;-80
2023/10/25 01:52:02;;;;;;;3.83;2.47;;;;;;;11.42;93.57;99258.16;5036861;28;20747;-80
2023/10/25 01:54:28;;;;;;;4.47;2.00;;;;;;;11.32;93.77;99256.84;5036494;28;20237;-80
2023/10/25 01:56:56;;;;;;;2.90;2.40;;;;;;;11.32;93.93;99246.41;5033551;28;20207;-81
2023/10/25 01:59:22;;;;;;;2.53;2.20;;;;;;;11.33;94.29;99235.00;5016063;28;20254;-80
2023/10/25 02:01:49;;;;;;;5.67;2.20;;;;;;;11.31;93.98;99239.47;5036840;28;20220;-81
2023/10/25 02:04:15;;;;;;;4.87;2.10;;;;;;;11.33;94.40;99229.78;5035932;28;20206;-80
2023/10/25 02:06:42;;;;;;;2.83;2.10;;;;;;;11.31;94.29;99229.00;5035836;28;20691;-80
2023/10/25 02:09:08;;;;;;;2.70;2.13;;;;;;;11.32;94.37;99233.34;5035954;28;20233;-81
2023/10/25 02:11:35;;;;;;;3.70;2.37;;;;;;;11.32;94.80;99220.28;5036633;28;20232;-80
2023/10/25 02:14:02;;;;;;;4.17;2.10;;;;;;;11.36;94.41;99218.34;5044137;28;20213;-81
2023/10/25 02:16:29;;;;;;;4.97;2.77;;;;;;;11.31;94.38;99224.63;5036037;28;20217;-81
2023/10/25 02:18:55;;;;;;;3.50;2.37;;;;;;;11.34;94.50;99215.81;5036162;28;20566;-81
2023/10/25 02:21:22;;;;;;;8.23;1.97;;;;;;;11.39;94.36;99219.09;5036472;28;20228;-81
2023/10/25 02:23:48;;;;;;;4.33;2.10;;;;;;;11.38;93.94;99217.41;5036087;28;20222;-81
2023/10/25 02:26:14;;;;;;;3.07;2.50;;;;;;;11.36;93.97;99226.19;5036449;28;20213;-80
2023/10/25 02:28:41;;;;;;;2.60;2.30;;;;;;;11.32;94.61;99215.88;5017814;28;20234;-81
2023/10/25 02:31:09;;;;;;;7.77;2.50;;;;;;;11.37;94.18;99225.28;5029974;28;20237;-81
2023/10/25 02:33:35;;;;;;;4.37;2.20;;;;;;;11.34;94.44;99223.66;5036254;28;20210;-80
2023/10/25 02:36:01;;;;;;;3.87;2.63;;;;;;;11.22;94.77;99221.53;5036098;28;20236;-79
2023/10/25 02:38:28;;;;;;;2.70;2.00;;;;;;;11.24;94.93;99215.34;5036481;28;20234;-79
2023/10/25 02:40:54;;;;;;;4.27;2.30;;;;;;;11.12;95.64;99206.25;5036203;28;20205;-81
2023/10/25 02:43:21;;;;;;;4.77;2.30;;;;;;;11.21;96.49;99184.13;5035686;28;20213;-81
2023/10/25 02:45:47;;;;;;;4.83;3.63;;;;;;;10.99;95.62;99181.56;5035923;28;20210;-81
2023/10/25 02:48:15;;;;;;;5.50;2.13;;;;;;;11.13;96.37;99168.78;5036330;28;20237;-80
2023/10/25 02:50:42;;;;;;;3.57;1.97;;;;;;;11.19;96.31;99172.91;5035430;28;20281;-81
2023/10/25 02:53:09;;;;;;;2.20;2.00;;;;;;;11.17;96.66;99171.28;5035857;28;20206;-80
2023/10/25 02:55:35;;;;;;;5.73;2.40;;;;;;;11.19;96.50;99167.66;5036305;28;20217;-78
2023/10/25 02:58:02;;;;;;;2.87;2.60;;;;;;;11.22;96.06;99164.94;5022633;28;20232;-81
2023/10/25 03:00:29;;;;;;;5.80;2.10;;;;;;;11.24;96.24;99165.72;5024272;28;20212;-81
2023/10/25 03:02:55;;;;;;;6.00;2.57;;;;;;;11.28;96.77;99158.63;5036123;28;20203;-80
2023/10/25 03:05:23;;;;;;;5.67;2.10;;;;;;;11.29;96.42;99158.53;5035501;28;20843;-80
2023/10/25 03:07:50;;;;;;;3.43;2.20;;;;;;;11.25;96.75;99156.13;5036135;28;20249;-80
2023/10/25 03:10:16;;;;;;;2.33;2.07;;;;;;;11.25;96.77;99145.69;5035936;28;20217;-81
2023/10/25 03:12:43;;;;;;;2.43;2.23;;;;;;;11.21;96.75;99137.09;5035324;28;20699;-81
2023/10/25 03:15:10;;;;;;;3.53;2.13;;;;;;;11.18;96.71;99136.38;5035783;28;20210;-80
2023/10/25 03:17:36;;;;;;;4.13;2.17;;;;;;;11.13;96.68;99132.22;5035330;28;20244;-80
2023/10/25 03:20:04;;;;;;;3.57;1.90;;;;;;;11.14;96.69;99135.69;5035519;28;20218;-80
2023/10/25 03:22:32;;;;;;;3.83;2.27;;;;;;;11.17;96.10;99146.00;5034886;28;20214;-80
2023/10/25 03:24:58;;;;;;;2.30;2.10;;;;;;;11.11;96.35;99154.94;5027389;28;20226;-81
2023/10/25 03:27:25;;;;;;;2.07;1.90;;;;;;;11.11;95.89;99160.16;5028583;28;20214;-81
2023/10/25 03:29:51;;;;;;;2.77;2.03;;;;;;;11.12;96.12;99159.25;5017183;28;20560;-80
2023/10/25 03:32:17;;;;;;;3.93;2.27;;;;;;;11.12;95.67;99166.25;5043420;28;20241;-80
2023/10/25 03:34:44;;;;;;;1.97;1.83;;;;;;;11.10;95.67;99166.31;5035175;28;20208;-80
2023/10/25 03:37:11;;;;;;;2.20;1.90;;;;;;;11.10;95.80;99162.84;5035011;28;20309;-81
2023/10/25 03:39:39;;;;;;;3.97;3.00;;;;;;;11.04;95.05;99176.13;5034671;28;20206;-80
2023/10/25 03:42:05;;;;;;;2.50;2.30;;;;;;;11.15;95.24;99178.31;5034815;28;20210;-80
2023/10/25 03:44:32;;;;;;;2.40;1.83;;;;;;;11.13;94.60;99187.06;5035172;28;20213;-80
2023/10/25 03:46:59;;;;;;;4.57;2.10;;;;;;;10.46;98.35;99158.44;5038685;28;20198;-80
2023/10/25 03:49:25;;;;;;;1.73;1.60;;;;;;;10.29;100.00;99099.94;5035078;28;20720;-79
2023/10/25 03:51:51;;;;;;;2.23;2.00;;;;;;;10.22;100.00;99048.09;5034903;28;20266;-81
2023/10/25 03:54:18;;;;;;;2.27;2.07;;;;;;;10.19;100.00;99019.50;5035089;28;20208;-80
2023/10/25 03:56:46;;;;;;;2.27;2.10;;;;;;;10.80;100.00;99024.84;5033419;28;20205;-80
2023/10/25 03:59:12;;;;;;;3.27;1.77;;;;;;;11.00;97.99;99067.50;5023221;28;20291;-80
2023/10/25 04:01:39;;;;;;;3.73;1.97;;;;;;;11.10;96.36;99101.03;5040733;28;20233;-80
2023/10/25 04:04:06;;;;;;;2.70;1.87;;;;;;;11.12;95.75;99120.09;5035305;28;20206;-80
2023/10/25 04:06:33;;;;;;;2.10;1.90;;;;;;;11.13;95.34;99134.81;5035340;28;20248;-80
2023/10/25 04:08:59;;;;;;;2.93;1.70;;;;;;;11.15;95.08;99147.81;5035249;28;20222;-81
2023/10/25 04:11:26;;;;;;;3.27;1.83;;;;;;;10.98;95.55;99145.06;5035698;28;20233;-81
2023/10/25 04:13:53;;;;;;;2.03;1.67;;;;;;;11.09;95.38;99140.25;5034876;28;20209;-80
2023/10/25 04:16:20;;;;;;;4.47;1.77;;;;;;;11.15;94.81;99152.22;5035700;28;20202;-81
2023/10/25 04:18:46;;;;;;;2.73;1.93;;;;;;;11.07;95.14;99142.06;5034475;28;20231;-80
2023/10/25 04:21:14;;;;;;;4.40;2.10;;;;;;;11.09;95.23;99145.47;5036547;28;20212;-80
2023/10/25 04:23:41;;;;;;;2.87;2.00;;;;;;;11.14;95.09;99148.75;5035820;28;20232;-82
2023/10/25 04:26:08;;;;;;;2.83;1.80;;;;;;;11.15;94.75;99149.59;5034963;28;20198;-80
2023/10/25 04:28:35;;;;;;;3.23;1.77;;;;;;;11.13;94.84;99144.44;5017469;28;20238;-81
2023/10/25 04:31:02;;;;;;;3.33;1.70;;;;;;;11.14;95.07;99151.38;5027223;28;20205;-81
2023/10/25 04:33:29;;;;;;;2.43;1.90;;;;;;;11.11;94.87;99147.09;5035270;28;20231;-81
2023/10/25 04:35:56;;;;;;;2.77;1.60;;;;;;;11.11;95.13;99147.09;5034977;28;20566;-81
2023/10/25 04:38:24;;;;;;;2.10;1.90;;;;;;;11.17;94.39;99158.22;5035506;28;20230;-80
2023/10/25 04:40:51;;;;;;;1.93;1.60;;;;;;;11.16;94.41;99146.06;5035599;28;20203;-81
2023/10/25 04:43:17;;;;;;;3.50;2.10;;;;;;;11.15;94.03;99153.03;5034497;28;20232;-80
2023/10/25 04:45:44;;;;;;;1.90;1.80;;;;;;;11.10;94.37;99153.25;5035574;28;20206;-80
2023/10/25 04:48:12;;;;;;;4.07;1.90;;;;;;;11.05;94.72;99147.34;5042415;28;20227;-81
2023/10/25 04:50:39;;;;;;;4.27;2.13;;;;;;;11.00;95.19;99141.50;5035569;28;20222;-80
2023/10/25 04:53:05;;;;;;;3.07;1.90;;;;;;;10.91;96.09;99134.03;5026934;28;20619;-81
2023/10/25 04:55:34;;;;;;;2.63;2.10;;;;;;;10.94;96.11;99118.22;5035622;28;20214;-80
2023/10/25 04:58:01;;;;;;;2.53;2.20;;;;;;;10.95;95.76;99109.50;5023613;28;20266;-80
2023/10/25 05:00:28;;;;;;;4.17;2.23;;;;;;;10.94;95.81;99105.16;5022199;28;20218;-81
2023/10/25 05:02:55;;;;;;;4.20;2.40;;;;;;;10.92;95.94;99110.47;5036420;28;20289;-81
2023/10/25 05:05:23;;;;;;;5.13;2.53;;;;;;;10.91;95.54;99118.38;5037919;28;20217;-81
2023/10/25 05:07:50;;;;;;;4.10;2.50;;;;;;;10.88;95.85;99111.53;5043944;28;20222;-80
2023/10/25 05:10:17;;;;;;;3.00;2.70;;;;;;;10.77;95.80;99112.88;5037813;28;20222;-80
2023/10/25 05:12:46;;;;;;;4.17;2.83;;;;;;;10.79;95.68;99114.50;5038520;28;20237;-80
2023/10/25 05:15:15;;;;;;;3.83;2.93;;;;;;;10.82;95.47;99118.75;5039486;28;20214;-80
2023/10/25 05:17:42;;;;;;;3.67;3.03;;;;;;;10.78;95.30;99119.78;5038664;28;20261;-80
2023/10/25 05:20:10;;;;;;;4.60;2.80;;;;;;;10.82;95.61;99114.38;5038499;28;20562;-81
2023/10/25 05:22:40;;;;;;;2.63;2.27;;;;;;;10.84;94.97;99129.97;5038072;28;20219;-80
2023/10/25 05:25:08;;;;;;;3.83;2.40;;;;;;;10.79;94.41;99127.56;5039166;28;20587;-81
2023/10/25 05:27:36;;;;;;;5.17;3.00;;;;;;;10.76;94.28;99137.25;5031090;28;20753;-80
2023/10/25 05:30:04;;;;;;;3.40;2.27;;;;;;;10.81;93.81;99137.94;5020793;28;20215;-80
2023/10/25 05:32:31;;;;;;;2.53;2.33;;;;;;;10.78;93.61;99144.09;5038542;28;20252;-81
2023/10/25 05:34:59;;;;;;;2.47;2.27;;;;;;;10.77;93.59;99152.03;5037913;28;20442;-81
2023/10/25 05:37:25;;;;;;;2.90;2.63;;;;;;;10.70;93.70;99159.25;5044042;28;20903;-81
2023/10/25 05:39:54;;;;;;;4.00;3.00;;;;;;;10.69;93.13;99165.38;5040517;28;20229;-80
2023/10/25 05:42:21;;;;;;;4.77;2.63;;;;;;;10.64;93.39;99164.69;5038197;28;20206;-81
2023/10/25 05:44:51;;;;;;;3.30;2.93;;;;;;;10.61;93.49;99150.03;5038157;28;20203;-80
2023/10/25 05:47:17;;;;;;;3.93;2.63;;;;;;;10.59;93.28;99151.84;5037816;28;20209;-80
2023/10/25 05:49:44;;;;;;;3.63;2.90;;;;;;;10.56;93.51;99157.19;5038319;28;20209;-80
2023/10/25 05:52:12;;;;;;;3.23;2.93;;;;;;;10.59;nan;99154.47;5038718;28;20218;-80
2023/10/25 05:54:39;;;;;;;4.03;3.63;;;;;;;10.60;93.38;99157.91;5038504;28;20556;-81
2023/10/25 05:57:08;;;;;;;6.33;4.03;;;;;;;10.58;93.00;99167.56;5028203;28;20207;-80
2023/10/25 05:59:35;;;;;;;6.30;3.63;;;;;;;10.58;93.01;99162.34;5026891;28;20222;-81
2023/10/25 06:02:08;;;;;;;3.70;3.40;;;;;;;10.55;93.25;99165.94;5037992;28;20199;-81
2023/10/25 06:04:37;;;;;;;3.83;3.30;;;;;;;10.51;92.68;99167.81;5038387;28;20213;-79
2023/10/25 06:07:05;;;;;;;3.43;3.23;;;;;;;10.47;92.21;99179.28;5038253;28;20210;-82
2023/10/25 06:09:32;;;;;;;3.53;3.23;;;;;;;10.44;91.65;99186.34;5038510;28;20222;-81
2023/10/25 06:11:59;;;;;;;5.67;3.07;;;;;;;10.38;91.27;99194.44;5037568;28;20244;-81
2023/10/25 06:14:29;;;;;;;4.13;3.50;;;;;;;10.31;91.54;99193.81;5038179;28;20213;-81
2023/10/25 06:16:55;;;;;;;3.77;2.70;;;;;;;10.31;91.53;99188.59;5037979;28;20304;-80
2023/10/25 06:19:22;;;;;;;4.80;2.57;;;;;;;10.37;91.35;99196.19;5038151;28;20238;-81
2023/10/25 06:21:48;;;;;;;3.30;3.00;;;;;;;10.33;90.97;99197.22;5045843;28;20751;-81
2023/10/25 06:24:15;;;;;;;3.50;3.23;;;;;;;10.33;91.32;99203.28;5038367;28;20210;-81
2023/10/25 06:26:42;;;;;;;3.83;3.43;;;;;;;10.34;91.18;99210.19;5038533;28;20210;-81
2023/10/25 06:29:08;;;;;;;3.23;3.03;;;;;;;10.32;91.50;99216.38;5022261;28;20237;-81
2023/10/25 06:31:36;;;;;;;6.83;4.43;;;;;;;10.33;91.65;99218.09;5025450;28;20206;-81
2023/10/25 06:34:03;;;;;;;5.90;4.60;;;;;;;10.34;92.15;99206.72;5037980;28;20581;-81
2023/10/25 06:36:31;;;;;;;5.53;4.90;;;;;;;10.29;92.67;99186.00;5038457;28;20217;-81
2023/10/25 06:38:58;;;;;;;4.80;4.37;;;;;;;10.33;93.10;99179.81;5037621;28;20229;-81
2023/10/25 06:41:25;;;;;;;5.00;4.50;;;;;;;10.34;93.30;99171.06;5037502;28;20209;-80
2023/10/25 06:43:52;;;;;;;5.17;4.77;;;;;;;10.38;93.35;99166.56;5045345;28;20197;-81
2023/10/25 06:46:21;;;;;;;5.00;4.57;;;;;;;10.41;93.43;99155.19;5038571;28;20206;-81
2023/10/25 06:48:49;;;;;;;6.17;5.67;;;;;;;10.45;93.53;99157.63;5041889;28;20739;-81
2023/10/25 06:51:16;;;;;;;4.40;4.00;;;;;;;10.49;93.71;99156.56;5028573;28;20203;-80
2023/10/25 06:53:43;;;;;;;5.40;4.90;;;;;;;10.45;93.80;99148.94;5028202;28;20241;-79
2023/10/25 06:56:11;;;;;;;4.90;4.50;;;;;;;10.46;93.83;99151.47;5042522;28;20213;-78
2023/10/25 06:58:38;;;;;;;5.70;4.33;;;;;;;10.43;94.34;99135.13;5025734;28;20234;-78
2023/10/25 07:01:06;;;;;;;4.67;4.27;;;;;;;10.46;94.40;99125.38;5015750;28;20238;-80
2023/10/25 07:03:34;;;;;;;4.70;4.30;;;;;;;10.46;94.79;99128.00;5033954;28;20229;-78
2023/10/25 07:06:04;;;;;;;5.77;4.50;;;;;;;10.45;94.92;99121.09;5029030;28;20640;-79
2023/10/25 07:08:31;;;;;;;5.17;4.20;;;;;;;10.45;94.96;99115.03;5024263;28;20226;-79
2023/10/25 07:10:58;;;;;;;4.67;4.00;;;;;;;10.43;94.97;99115.09;5025527;28;20210;-78
2023/10/25 07:13:26;;;;;;;6.00;5.43;;;;;;;10.22;95.77;99108.91;5023171;28;20223;-79
2023/10/25 07:15:53;;;;;;;5.83;4.40;;;;;;;10.30;97.47;99077.34;5025160;28;20209;-79
2023/10/25 07:18:19;;;;;;;4.47;4.07;;;;;;;10.33;97.28;99077.25;5022959;28;20238;-79
2023/10/25 07:20:46;;;;;;;5.20;4.70;;;;;;;10.36;97.62;99071.03;5021904;28;20210;-79
2023/10/25 07:23:14;;;;;;;5.00;4.47;;;;;;;10.39;97.71;99069.16;5024049;28;20199;-80
2023/10/25 07:25:40;;;;;;;4.03;3.73;;;;;;;10.35;98.36;99059.75;5025323;28;20203;-79
2023/10/25 07:28:06;;;;;;;4.57;4.10;;;;;;;10.35;99.09;99051.94;5023760;28;20744;-79
2023/10/25 07:30:34;;;;;;;4.73;3.90;;;;;;;10.40;98.88;99046.53;5028674;28;20206;-79
2023/10/25 07:33:01;;;;;;;3.73;3.43;;;;;;;10.39;99.35;99040.47;5026604;28;20617;-79
2023/10/25 07:35:28;;;;;;;5.97;4.87;;;;;;;10.34;99.41;99045.84;5029591;28;20557;-79
2023/10/25 07:37:54;;;;;;;5.70;5.30;;;;;;;10.28;99.12;99045.22;5024128;28;20222;-76
2023/10/25 07:40:22;;;;;;;6.20;5.60;;;;;;;10.20;98.84;99040.31;5023668;28;20218;-79
2023/10/25 07:42:49;;;;;;;6.33;5.73;;;;;;;10.27;99.22;99031.34;5023935;28;20202;-79
2023/10/25 07:45:15;;;;;;;6.00;5.40;;;;;;;10.11;99.94;99028.50;5035604;28;20217;-80
2023/10/25 07:47:42;;;;;;;7.60;5.67;;;;;;;10.04;100.00;99023.59;5046323;28;20226;-79
2023/10/25 07:50:09;;;;;;;6.97;5.87;;;;;;;10.20;99.85;99024.66;5053725;28;20190;-78
2023/10/25 07:52:36;;;;;;;7.23;6.43;;;;;;;10.35;99.31;99018.03;5046563;28;20226;-78
2023/10/25 07:55:03;;;;;;;8.17;5.60;;;;;;;10.41;99.16;99024.75;5048137;28;20206;-78
2023/10/25 07:57:31;;;;;;;5.50;5.00;;;;;;;10.29;98.29;99044.34;5032913;28;20217;-78
2023/10/25 07:59:58;;;;;;;7.93;5.53;;;;;;;10.40;99.03;99033.50;5025702;28;20209;-78
2023/10/25 08:02:25;;;;;;;5.30;4.80;;;;;;;10.56;98.64;99039.75;5027275;28;20668;-79
2023/10/25 08:04:51;;;;;;;5.60;4.90;;;;;;;10.56;98.50;99051.97;5024258;28;20579;-79
2023/10/25 08:07:18;;;;;;;13.17;5.10;;;;;;;10.55;98.70;99051.13;5020381;28;20211;-78
2023/10/25 08:09:46;;;;;;;6.70;5.27;;;;;;;10.65;98.21;99054.22;5022726;28;20202;-78
2023/10/25 08:12:13;;;;;;;6.50;4.90;;;;;;;10.65;97.20;99059.44;5020686;28;20214;-79
2023/10/25 08:14:41;;;;;;;5.07;4.50;;;;;;;10.41;98.89;99049.09;5022250;28;20233;-78
2023/10/25 08:17:11;;;;;;;4.67;4.37;;;;;;;10.45;99.43;99032.38;5022943;28;20207;-79
2023/10/25 08:19:37;;;;;;;5.23;4.57;;;;;;;10.46;100.00;99020.19;5021523;28;20221;-78
2023/10/25 08:22:05;;;;;;;6.70;6.10;;;;;;;10.39;100.00;98998.72;5020477;28;20674;-79
2023/10/25 08:24:32;;;;;;;5.60;5.10;;;;;;;10.38;100.00;98997.03;5021337;28;20202;-79
2023/10/25 08:26:59;;;;;;;6.77;6.17;;;;;;;10.41;100.00;99003.91;5020476;28;20198;-79
2023/10/25 08:29:25;;;;;;;6.53;5.87;;;;;;;10.58;99.75;99004.00;5019742;28;20223;-78
2023/10/25 08:31:53;;;;;;;6.20;5.70;;;;;;;10.52;99.30;99007.75;5028008;28;20550;-80
2023/10/25 08:34:20;;;;;;;6.77;6.27;;;;;;;10.46;99.01;99020.19;5023840;28;20257;-79
2023/10/25 08:36:46;;;;;;;6.40;5.90;;;;;;;10.30;99.86;99027.78;5020145;28;20203;-79
2023/10/25 08:39:13;;;;;;;7.47;6.30;;;;;;;10.09;100.00;99012.06;5020720;28;20231;-78
2023/10/25 08:41:40;;;;;;;6.23;5.77;;;;;;;10.20;100.00;98988.16;5024023;28;20203;-79
2023/10/25 08:44:08;;;;;;;5.90;5.50;;;;;;;10.21;100.00;98966.41;5022836;28;20203;-79
2023/10/25 08:46:35;;;;;;;6.60;5.90;;;;;;;10.11;100.00;98965.94;5026280;28;20234;-79
2023/10/25 08:49:03;;;;;;;7.60;6.67;;;;;;;10.11;100.00;98949.44;5024347;28;20231;-79
2023/10/25 08:51:30;;;;;;;5.90;5.30;;;;;;;9.93;100.00;98919.78;5029347;28;20206;-79
2023/10/25 08:54:00;;;;;;;7.27;6.57;;;;;;;10.02;100.00;98901.13;5026128;28;20241;-79
2023/10/25 08:56:26;;;;;;;6.43;5.97;;;;;;;10.17;100.00;98901.38;5025913;28;20214;-79
2023/10/25 08:58:53;;;;;;;6.83;6.13;;;;;;;10.17;100.00;98896.19;5026153;28;20229;-79
2023/10/25 09:01:19;;;;;;;7.00;6.30;;;;;;;10.05;100.00;98902.75;5029568;28;20212;-80
2023/10/25 09:03:46;;;;;;;6.43;5.90;;;;;;;9.99;100.00;98892.56;5032330;28;20210;-79
2023/10/25 09:06:24;;;;;;;5.87;5.10;;;;;;;10.02;100.00;98884.66;5025696;28;20741;-79
2023/10/25 09:08:57;;;;;;;5.63;5.07;;;;;;;10.00;100.00;98876.88;5028291;28;20222;-80
2023/10/25 09:11:24;;;;;;;5.47;5.07;;;;;;;10.58;100.00;98902.25;5025838;28;20231;-78
2023/10/25 09:13:56;;;;;;;5.70;5.30;;;;;;;10.70;100.00;98951.31;5038778;28;20230;-78
2023/10/25 09:16:26;;;;;;;5.53;5.03;;;;;;;10.77;99.33;98970.16;5048222;28;20207;-79
2023/10/25 09:18:53;;;;;;;5.70;5.30;;;;;;;10.83;98.48;98985.56;5044726;28;20608;-79
2023/10/25 09:21:27;;;;;;;5.70;5.10;;;;;;;11.02;98.21;99000.41;5047825;28;20210;-79
2023/10/25 09:23:55;;;;;;;6.70;4.37;;;;;;;11.18;100.00;98977.94;5046335;28;20200;-79
2023/10/25 09:26:22;;;;;;;8.40;4.93;;;;;;;11.38;100.00;98956.13;5043881;28;20630;-79
2023/10/25 09:28:53;;;;;;;6.57;5.10;;;;;;;11.44;100.00;98955.84;5042239;28;20234;-78
2023/10/25 09:31:22;;;;;;;5.30;4.80;;;;;;;11.53;98.41;98975.47;5034848;28;20207;-79
2023/10/25 09:33:50;;;;;;;5.80;4.67;;;;;;;11.34;95.75;99017.28;5016873;28;20580;-79
2023/10/25 09:36:16;;;;;;;5.50;4.77;;;;;;;11.50;96.51;99026.13;5036256;28;20215;-79
2023/10/25 09:38:44;;;;;;;8.87;6.27;;;;;;;11.68;100.00;98979.97;5037078;28;20237;-78
2023/10/25 09:41:14;;;;;;;5.97;5.47;;;;;;;11.58;96.97;98998.78;5037155;28;20706;-78
2023/10/25 09:43:46;;;;;;;5.93;5.43;;;;;;;11.64;96.98;99003.72;5039825;28;20260;-79
2023/10/25 09:46:16;;;;;;;5.97;5.37;;;;;;;11.69;96.83;99004.34;5038670;28;20210;-78
2023/10/25 09:48:59;;;;;;;5.40;4.90;;;;;;;11.81;97.66;98997.69;5043608;28;20222;-79
2023/10/25 09:51:38;;;;;;;5.97;5.47;;;;;;;11.76;95.03;99028.47;5036850;28;20622;-78
2023/10/25 09:54:11;;;;;;;4.97;4.60;;;;;;;11.84;96.27;99029.78;5037951;28;20222;-81
2023/10/25 09:56:38;;;;;;;5.33;4.40;;;;;;;11.88;94.25;99054.03;5036926;28;20206;-80
2023/10/25 09:59:07;;;;;;;4.37;3.83;;;;;;;11.91;93.49;99077.44;5037817;28;20222;-81
2023/10/25 10:01:35;;;;;;;5.90;3.97;;;;;;;11.92;93.17;99084.38;5035526;28;20203;-81
2023/10/25 10:04:11;;;;;;;5.13;4.00;;;;;;;12.06;93.00;99088.97;5019255;28;20203;-80
2023/10/25 10:06:45;;;;;;;4.10;3.80;;;;;;;11.68;90.40;99121.13;5031584;28;20197;-81
2023/10/25 10:09:23;;;;;;;3.97;3.67;;;;;;;11.77;91.72;99119.00;5038880;28;20730;-81
2023/10/25 10:11:59;;;;;;;4.07;2.80;;;;;;;11.97;91.94;99094.59;5039056;28;20202;-81
2023/10/25 10:14:28;;;;;;;5.37;3.73;;;;;;;12.39;92.91;99096.09;5037919;28;20236;-79
2023/10/25 10:16:57;;;;;;;4.70;3.53;;;;;;;12.60;92.75;99087.22;5037037;28;20210;-80
2023/10/25 10:19:24;;;;;;;3.60;2.73;;;;;;;12.65;92.66;99076.53;5036487;28;20237;-80
2023/10/25 10:22:05;;;;;;;2.90;2.70;;;;;;;12.71;90.82;99098.03;5036901;28;20211;-79
2023/10/25 10:24:41;;;;;;;3.57;3.27;;;;;;;12.70;90.66;99103.31;5037995;28;20198;-80
2023/10/25 10:27:07;;;;;;;3.77;3.00;;;;;;;12.35;89.50;99129.44;5037368;28;20213;-80
2023/10/25 10:29:41;;;;;;;5.67;3.37;;;;;;;12.62;88.53;99155.22;5036521;28;20226;-80
2023/10/25 10:32:09;;;;;;;3.33;2.97;;;;;;;12.79;89.48;99129.06;5028682;28;20207;-79
2023/10/25 10:34:38;;;;;;;4.33;3.20;;;;;;;12.85;90.27;99120.91;5021689;28;20279;-81
2023/10/25 10:37:08;;;;;;;3.13;2.77;;;;;;;12.80;88.07;99138.59;5036758;28;20214;-80
2023/10/25 10:39:36;;;;;;;3.87;3.07;;;;;;;12.94;89.67;99139.69;5036954;28;20301;-80
2023/10/25 10:42:05;;;;;;;3.03;2.83;;;;;;;13.02;90.64;99114.84;5037165;28;20210;-80
2023/10/25 10:44:35;;;;;;;3.30;2.87;;;;;;;13.07;89.78;99118.06;5045425;28;20221;-80
2023/10/25 10:47:05;;;;;;;3.87;2.80;;;;;;;13.10;88.47;99132.75;5037079;28;20205;-81
2023/10/25 10:49:35;;;;;;;3.20;2.60;;;;;;;13.13;87.09;99161.44;5039551;28;20234;-80
2023/10/25 10:52:03;;;;;;;4.20;2.47;;;;;;;13.13;87.55;99168.47;5041023;28;20205;-80
2023/10/25 10:54:30;;;;;;;2.47;2.27;;;;;;;13.23;89.55;99127.78;5037251;28;20226;-80
2023/10/25 10:56:56;;;;;;;2.80;2.47;;;;;;;13.28;89.69;99113.50;5044942;28;20283;-80
2023/10/25 10:59:28;;;;;;;3.73;2.63;;;;;;;13.31;89.47;99110.75;5038233;28;20644;-79
2023/10/25 11:01:55;;;;;;;3.90;2.60;;;;;;;13.35;89.44;99097.50;5033690;28;20760;-80
2023/10/25 11:04:21;;;;;;;2.40;2.20;;;;;;;13.35;87.56;99116.69;5021146;28;20207;-81
2023/10/25 11:06:48;;;;;;;4.87;2.43;;;;;;;13.29;85.67;99172.00;5038286;28;20214;-81
2023/10/25 11:09:14;;;;;;;2.53;2.10;;;;;;;13.34;85.23;99171.78;5039903;28;20222;-80
2023/10/25 11:11:41;;;;;;;3.50;2.27;;;;;;;13.40;87.33;99156.63;5041191;28;20227;-80
2023/10/25 11:14:07;;;;;;;2.80;2.50;;;;;;;13.42;86.06;99161.75;5040474;28;20254;-79
2023/10/25 11:16:35;;;;;;;2.10;1.90;;;;;;;13.45;85.01;99164.25;5038279;28;20205;-79
2023/10/25 11:19:08;;;;;;;2.80;2.23;;;;;;;13.58;85.25;99144.34;5035666;28;20235;-80
2023/10/25 11:21:35;;;;;;;3.07;2.10;;;;;;;13.60;83.73;99175.72;5036945;28;20203;-79
2023/10/25 11:24:06;;;;;;;3.43;2.17;;;;;;;13.64;85.67;99175.47;5036982;28;20220;-80
2023/10/25 11:26:37;;;;;;;2.40;1.80;;;;;;;13.68;84.70;99169.13;5037386;28;20211;-79
2023/10/25 11:29:04;;;;;;;2.60;1.93;;;;;;;13.65;83.00;99207.78;5035961;28;20319;-80
2023/10/25 11:31:32;;;;;;;3.10;2.60;;;;;;;13.55;82.75;99238.03;5034671;28;20239;-80
2023/10/25 11:34:00;;;;;;;2.40;2.20;;;;;;;13.53;81.65;99247.75;5016356;28;20274;-80